sensor_id;sensor_type;location;lat;lon;timestamp;P1;durP1;ratioP1;P2;durP2;ratioP2
19830;SDS011;10076;52.008;4.708;2023-02-13T00:00:52;25.27;;;7.57;;
19830;SDS011;10076;52.008;4.708;2023-02-13T00:03:18;20.23;;;6.87;;
19830;SDS011;10076;52.008;4.708;2023-02-13T00:05:43;20.07;;;8.03;;
19830;SDS011;10076;52.008;4.708;2023-02-13T00:08:08;24.27;;;8.17;;
19830;SDS011;10076;52.008;4.708;2023-02-13T00:10:34;21.60;;;8.40;;
19830;SDS011;10076;52.008;4.708;2023-02-13T00:12:59;20.53;;;8.90;;
19830;SDS011;10076;52.008;4.708;2023-02-13T00:15:24;21.97;;;7.73;;
19830;SDS011;10076;52.008;4.708;2023-02-13T00:17:50;19.80;;;8.00;;
19830;SDS011;10076;52.008;4.708;2023-02-13T00:20:15;21.20;;;8.27;;
19830;SDS011;10076;52.008;4.708;2023-02-13T00:22:40;20.07;;;8.63;;
19830;SDS011;10076;52.008;4.708;2023-02-13T00:25:06;18.97;;;7.30;;
19830;SDS011;10076;52.008;4.708;2023-02-13T00:27:31;20.30;;;7.87;;
19830;SDS011;10076;52.008;4.708;2023-02-13T00:29:57;20.13;;;7.60;;
19830;SDS011;10076;52.008;4.708;2023-02-13T00:32:23;21.10;;;8.40;;
19830;SDS011;10076;52.008;4.708;2023-02-13T00:34:48;21.33;;;7.80;;
19830;SDS011;10076;52.008;4.708;2023-02-13T00:37:14;21.73;;;8.50;;
19830;SDS011;10076;52.008;4.708;2023-02-13T00:39:39;21.90;;;8.93;;
19830;SDS011;10076;52.008;4.708;2023-02-13T00:42:05;20.40;;;8.23;;
19830;SDS011;10076;52.008;4.708;2023-02-13T00:44:31;22.90;;;8.73;;
19830;SDS011;10076;52.008;4.708;2023-02-13T00:46:56;19.23;;;7.70;;
19830;SDS011;10076;52.008;4.708;2023-02-13T00:49:22;18.90;;;7.97;;
19830;SDS011;10076;52.008;4.708;2023-02-13T00:51:47;23.20;;;8.73;;
19830;SDS011;10076;52.008;4.708;2023-02-13T00:54:12;19.57;;;7.97;;
19830;SDS011;10076;52.008;4.708;2023-02-13T00:56:38;24.73;;;8.77;;
19830;SDS011;10076;52.008;4.708;2023-02-13T00:59:03;18.93;;;8.57;;
19830;SDS011;10076;52.008;4.708;2023-02-13T01:01:28;20.27;;;8.30;;
19830;SDS011;10076;52.008;4.708;2023-02-13T01:03:53;17.60;;;7.27;;
19830;SDS011;10076;52.008;4.708;2023-02-13T01:06:19;22.20;;;7.80;;
19830;SDS011;10076;52.008;4.708;2023-02-13T01:08:44;15.93;;;7.60;;
19830;SDS011;10076;52.008;4.708;2023-02-13T01:11:10;24.80;;;8.77;;
19830;SDS011;10076;52.008;4.708;2023-02-13T01:13:35;21.00;;;7.93;;
19830;SDS011;10076;52.008;4.708;2023-02-13T01:16:00;22.00;;;9.27;;
19830;SDS011;10076;52.008;4.708;2023-02-13T01:18:26;22.10;;;8.10;;
19830;SDS011;10076;52.008;4.708;2023-02-13T01:20:58;19.17;;;7.80;;
19830;SDS011;10076;52.008;4.708;2023-02-13T01:23:32;19.43;;;8.30;;
19830;SDS011;10076;52.008;4.708;2023-02-13T01:25:59;18.53;;;8.17;;
19830;SDS011;10076;52.008;4.708;2023-02-13T01:28:25;20.80;;;9.00;;
19830;SDS011;10076;52.008;4.708;2023-02-13T01:30:54;19.97;;;8.00;;
19830;SDS011;10076;52.008;4.708;2023-02-13T01:33:21;20.13;;;8.50;;
19830;SDS011;10076;52.008;4.708;2023-02-13T01:35:48;17.13;;;8.17;;
19830;SDS011;10076;52.008;4.708;2023-02-13T01:38:14;23.63;;;8.23;;
19830;SDS011;10076;52.008;4.708;2023-02-13T01:40:45;18.37;;;8.17;;
19830;SDS011;10076;52.008;4.708;2023-02-13T01:43:12;21.77;;;8.40;;
19830;SDS011;10076;52.008;4.708;2023-02-13T01:45:37;23.80;;;8.20;;
19830;SDS011;10076;52.008;4.708;2023-02-13T01:48:07;20.30;;;7.03;;
19830;SDS011;10076;52.008;4.708;2023-02-13T01:50:40;20.50;;;8.03;;
19830;SDS011;10076;52.008;4.708;2023-02-13T01:55:49;21.00;;;8.63;;
19830;SDS011;10076;52.008;4.708;2023-02-13T01:58:23;23.97;;;8.37;;
19830;SDS011;10076;52.008;4.708;2023-02-13T02:00:53;21.73;;;8.20;;
19830;SDS011;10076;52.008;4.708;2023-02-13T02:03:20;22.47;;;8.20;;
19830;SDS011;10076;52.008;4.708;2023-02-13T02:05:51;20.07;;;7.80;;
19830;SDS011;10076;52.008;4.708;2023-02-13T02:08:20;24.17;;;7.87;;
19830;SDS011;10076;52.008;4.708;2023-02-13T02:10:46;21.27;;;8.03;;
19830;SDS011;10076;52.008;4.708;2023-02-13T02:13:13;19.83;;;7.90;;
19830;SDS011;10076;52.008;4.708;2023-02-13T02:15:42;26.00;;;8.40;;
19830;SDS011;10076;52.008;4.708;2023-02-13T02:18:21;21.43;;;7.53;;
19830;SDS011;10076;52.008;4.708;2023-02-13T02:20:57;22.47;;;8.33;;
19830;SDS011;10076;52.008;4.708;2023-02-13T02:44:10;24.13;;;7.47;;
19830;SDS011;10076;52.008;4.708;2023-02-13T02:46:38;21.40;;;8.00;;
19830;SDS011;10076;52.008;4.708;2023-02-13T02:49:40;19.30;;;7.13;;
19830;SDS011;10076;52.008;4.708;2023-02-13T02:55:09;20.37;;;8.87;;
19830;SDS011;10076;52.008;4.708;2023-02-13T02:57:51;21.93;;;7.90;;
19830;SDS011;10076;52.008;4.708;2023-02-13T03:00:44;18.50;;;8.63;;
19830;SDS011;10076;52.008;4.708;2023-02-13T03:03:32;19.00;;;7.10;;
19830;SDS011;10076;52.008;4.708;2023-02-13T03:06:19;20.63;;;8.43;;
19830;SDS011;10076;52.008;4.708;2023-02-13T03:09:09;20.83;;;7.07;;
19830;SDS011;10076;52.008;4.708;2023-02-13T03:11:57;18.73;;;7.13;;
19830;SDS011;10076;52.008;4.708;2023-02-13T03:14:41;18.97;;;7.53;;
19830;SDS011;10076;52.008;4.708;2023-02-13T03:17:10;12.97;;;6.50;;
19830;SDS011;10076;52.008;4.708;2023-02-13T03:22:50;17.87;;;7.63;;
19830;SDS011;10076;52.008;4.708;2023-02-13T03:25:42;18.13;;;7.80;;
19830;SDS011;10076;52.008;4.708;2023-02-13T03:42:43;16.57;;;8.23;;
19830;SDS011;10076;52.008;4.708;2023-02-13T03:45:17;16.80;;;7.97;;
19830;SDS011;10076;52.008;4.708;2023-02-13T03:48:05;17.93;;;8.07;;
19830;SDS011;10076;52.008;4.708;2023-02-13T03:50:53;24.80;;;8.30;;
19830;SDS011;10076;52.008;4.708;2023-02-13T03:53:21;19.53;;;8.33;;
19830;SDS011;10076;52.008;4.708;2023-02-13T03:55:48;18.17;;;6.93;;
19830;SDS011;10076;52.008;4.708;2023-02-13T03:58:34;21.07;;;7.33;;
19830;SDS011;10076;52.008;4.708;2023-02-13T04:01:22;14.53;;;5.67;;
19830;SDS011;10076;52.008;4.708;2023-02-13T04:04:27;18.40;;;8.07;;
19830;SDS011;10076;52.008;4.708;2023-02-13T04:09:18;20.23;;;8.10;;
19830;SDS011;10076;52.008;4.708;2023-02-13T04:14:42;19.20;;;7.17;;
19830;SDS011;10076;52.008;4.708;2023-02-13T04:17:15;15.23;;;6.87;;
19830;SDS011;10076;52.008;4.708;2023-02-13T04:19:47;18.27;;;7.30;;
19830;SDS011;10076;52.008;4.708;2023-02-13T04:22:12;20.17;;;7.30;;
19830;SDS011;10076;52.008;4.708;2023-02-13T04:24:38;17.47;;;7.40;;
19830;SDS011;10076;52.008;4.708;2023-02-13T04:27:03;16.83;;;7.00;;
19830;SDS011;10076;52.008;4.708;2023-02-13T04:29:28;19.13;;;6.70;;
19830;SDS011;10076;52.008;4.708;2023-02-13T04:31:54;16.27;;;6.00;;
19830;SDS011;10076;52.008;4.708;2023-02-13T04:34:19;22.97;;;7.20;;
19830;SDS011;10076;52.008;4.708;2023-02-13T04:36:45;17.83;;;6.73;;
19830;SDS011;10076;52.008;4.708;2023-02-13T04:39:10;20.10;;;6.93;;
19830;SDS011;10076;52.008;4.708;2023-02-13T04:41:36;17.10;;;7.10;;
19830;SDS011;10076;52.008;4.708;2023-02-13T04:44:01;15.87;;;6.60;;
19830;SDS011;10076;52.008;4.708;2023-02-13T04:46:27;16.30;;;5.93;;
19830;SDS011;10076;52.008;4.708;2023-02-13T04:48:52;14.83;;;6.73;;
19830;SDS011;10076;52.008;4.708;2023-02-13T04:51:17;19.63;;;6.87;;
19830;SDS011;10076;52.008;4.708;2023-02-13T04:53:43;18.97;;;6.13;;
19830;SDS011;10076;52.008;4.708;2023-02-13T04:56:08;16.73;;;7.13;;
19830;SDS011;10076;52.008;4.708;2023-02-13T04:58:33;19.50;;;6.23;;
19830;SDS011;10076;52.008;4.708;2023-02-13T05:00:59;16.93;;;7.13;;
19830;SDS011;10076;52.008;4.708;2023-02-13T05:03:24;21.87;;;6.93;;
19830;SDS011;10076;52.008;4.708;2023-02-13T05:05:49;17.03;;;6.97;;
19830;SDS011;10076;52.008;4.708;2023-02-13T05:08:15;22.30;;;7.23;;
19830;SDS011;10076;52.008;4.708;2023-02-13T05:10:40;15.27;;;6.47;;
19830;SDS011;10076;52.008;4.708;2023-02-13T05:13:06;15.33;;;6.20;;
19830;SDS011;10076;52.008;4.708;2023-02-13T05:15:31;20.00;;;8.20;;
19830;SDS011;10076;52.008;4.708;2023-02-13T05:17:56;18.67;;;7.13;;
19830;SDS011;10076;52.008;4.708;2023-02-13T05:20:22;15.50;;;7.47;;
19830;SDS011;10076;52.008;4.708;2023-02-13T05:22:51;20.40;;;7.13;;
19830;SDS011;10076;52.008;4.708;2023-02-13T05:25:37;18.87;;;6.47;;
19830;SDS011;10076;52.008;4.708;2023-02-13T05:28:04;21.63;;;8.37;;
19830;SDS011;10076;52.008;4.708;2023-02-13T05:30:50;19.53;;;7.50;;
19830;SDS011;10076;52.008;4.708;2023-02-13T05:33:15;18.17;;;7.43;;
19830;SDS011;10076;52.008;4.708;2023-02-13T05:35:41;19.30;;;7.43;;
19830;SDS011;10076;52.008;4.708;2023-02-13T05:38:06;21.30;;;8.10;;
19830;SDS011;10076;52.008;4.708;2023-02-13T05:40:31;21.43;;;7.10;;
19830;SDS011;10076;52.008;4.708;2023-02-13T05:42:57;17.60;;;6.77;;
19830;SDS011;10076;52.008;4.708;2023-02-13T05:45:22;19.80;;;6.80;;
19830;SDS011;10076;52.008;4.708;2023-02-13T05:47:48;23.67;;;8.07;;
19830;SDS011;10076;52.008;4.708;2023-02-13T05:50:13;20.20;;;7.10;;
19830;SDS011;10076;52.008;4.708;2023-02-13T05:52:38;22.73;;;7.93;;
19830;SDS011;10076;52.008;4.708;2023-02-13T05:55:04;20.57;;;7.40;;
19830;SDS011;10076;52.008;4.708;2023-02-13T05:57:29;22.37;;;7.23;;
19830;SDS011;10076;52.008;4.708;2023-02-13T05:59:55;19.50;;;7.50;;
19830;SDS011;10076;52.008;4.708;2023-02-13T06:02:20;22.23;;;8.23;;
19830;SDS011;10076;52.008;4.708;2023-02-13T06:04:45;20.63;;;7.73;;
19830;SDS011;10076;52.008;4.708;2023-02-13T06:07:10;19.33;;;7.57;;
19830;SDS011;10076;52.008;4.708;2023-02-13T06:09:36;21.07;;;7.63;;
19830;SDS011;10076;52.008;4.708;2023-02-13T06:12:01;17.23;;;6.70;;
19830;SDS011;10076;52.008;4.708;2023-02-13T06:14:26;16.93;;;6.97;;
19830;SDS011;10076;52.008;4.708;2023-02-13T06:16:52;14.87;;;6.67;;
19830;SDS011;10076;52.008;4.708;2023-02-13T06:19:17;18.07;;;7.20;;
19830;SDS011;10076;52.008;4.708;2023-02-13T06:21:42;16.70;;;7.13;;
19830;SDS011;10076;52.008;4.708;2023-02-13T06:24:07;16.47;;;7.27;;
19830;SDS011;10076;52.008;4.708;2023-02-13T06:26:33;19.53;;;7.47;;
19830;SDS011;10076;52.008;4.708;2023-02-13T06:28:58;20.73;;;8.07;;
19830;SDS011;10076;52.008;4.708;2023-02-13T06:31:24;16.17;;;6.70;;
19830;SDS011;10076;52.008;4.708;2023-02-13T06:33:49;12.77;;;6.43;;
19830;SDS011;10076;52.008;4.708;2023-02-13T06:36:15;18.43;;;6.87;;
19830;SDS011;10076;52.008;4.708;2023-02-13T06:38:40;18.77;;;6.67;;
19830;SDS011;10076;52.008;4.708;2023-02-13T06:41:05;17.53;;;8.00;;
19830;SDS011;10076;52.008;4.708;2023-02-13T06:43:31;18.87;;;7.47;;
19830;SDS011;10076;52.008;4.708;2023-02-13T06:45:56;18.77;;;7.63;;
19830;SDS011;10076;52.008;4.708;2023-02-13T06:48:22;20.17;;;8.43;;
19830;SDS011;10076;52.008;4.708;2023-02-13T06:50:47;17.47;;;7.20;;
19830;SDS011;10076;52.008;4.708;2023-02-13T06:53:12;17.07;;;6.67;;
19830;SDS011;10076;52.008;4.708;2023-02-13T06:55:38;25.07;;;8.77;;
19830;SDS011;10076;52.008;4.708;2023-02-13T06:58:04;22.17;;;9.10;;
19830;SDS011;10076;52.008;4.708;2023-02-13T07:00:30;21.27;;;8.30;;
19830;SDS011;10076;52.008;4.708;2023-02-13T07:02:59;17.57;;;7.03;;
19830;SDS011;10076;52.008;4.708;2023-02-13T07:05:26;19.60;;;8.27;;
19830;SDS011;10076;52.008;4.708;2023-02-13T07:07:51;21.40;;;7.50;;
19830;SDS011;10076;52.008;4.708;2023-02-13T07:10:17;16.83;;;6.93;;
19830;SDS011;10076;52.008;4.708;2023-02-13T07:12:42;20.73;;;7.77;;
19830;SDS011;10076;52.008;4.708;2023-02-13T07:15:07;21.30;;;7.90;;
19830;SDS011;10076;52.008;4.708;2023-02-13T07:17:33;18.37;;;7.83;;
19830;SDS011;10076;52.008;4.708;2023-02-13T07:19:58;18.83;;;7.27;;
19830;SDS011;10076;52.008;4.708;2023-02-13T07:22:24;18.67;;;7.63;;
19830;SDS011;10076;52.008;4.708;2023-02-13T07:24:49;20.27;;;7.30;;
19830;SDS011;10076;52.008;4.708;2023-02-13T07:27:14;19.47;;;7.77;;
19830;SDS011;10076;52.008;4.708;2023-02-13T07:29:39;18.97;;;7.90;;
19830;SDS011;10076;52.008;4.708;2023-02-13T07:32:05;26.13;;;7.67;;
19830;SDS011;10076;52.008;4.708;2023-02-13T07:34:31;23.33;;;9.40;;
19830;SDS011;10076;52.008;4.708;2023-02-13T07:36:57;19.63;;;8.80;;
19830;SDS011;10076;52.008;4.708;2023-02-13T07:39:22;19.27;;;8.33;;
19830;SDS011;10076;52.008;4.708;2023-02-13T07:41:47;18.07;;;7.27;;
19830;SDS011;10076;52.008;4.708;2023-02-13T07:44:13;19.47;;;7.93;;
19830;SDS011;10076;52.008;4.708;2023-02-13T07:46:38;22.27;;;7.47;;
19830;SDS011;10076;52.008;4.708;2023-02-13T07:49:03;25.60;;;8.27;;
19830;SDS011;10076;52.008;4.708;2023-02-13T07:51:28;17.23;;;8.10;;
19830;SDS011;10076;52.008;4.708;2023-02-13T07:53:54;15.43;;;8.30;;
19830;SDS011;10076;52.008;4.708;2023-02-13T07:56:20;24.57;;;9.03;;
19830;SDS011;10076;52.008;4.708;2023-02-13T07:58:45;17.83;;;9.03;;
19830;SDS011;10076;52.008;4.708;2023-02-13T08:01:11;20.30;;;8.07;;
19830;SDS011;10076;52.008;4.708;2023-02-13T08:03:38;17.03;;;7.60;;
19830;SDS011;10076;52.008;4.708;2023-02-13T08:06:04;21.63;;;9.37;;
19830;SDS011;10076;52.008;4.708;2023-02-13T08:08:31;21.87;;;7.97;;
19830;SDS011;10076;52.008;4.708;2023-02-13T08:10:56;21.87;;;8.33;;
19830;SDS011;10076;52.008;4.708;2023-02-13T08:13:45;24.63;;;9.13;;
19830;SDS011;10076;52.008;4.708;2023-02-13T08:16:11;19.63;;;10.20;;
19830;SDS011;10076;52.008;4.708;2023-02-13T08:18:36;27.10;;;9.97;;
19830;SDS011;10076;52.008;4.708;2023-02-13T08:21:01;23.00;;;9.87;;
19830;SDS011;10076;52.008;4.708;2023-02-13T08:23:27;24.27;;;10.20;;
19830;SDS011;10076;52.008;4.708;2023-02-13T08:25:52;22.37;;;9.13;;
19830;SDS011;10076;52.008;4.708;2023-02-13T08:28:17;23.57;;;9.13;;
19830;SDS011;10076;52.008;4.708;2023-02-13T08:30:43;23.73;;;9.17;;
19830;SDS011;10076;52.008;4.708;2023-02-13T08:33:08;22.97;;;9.30;;
19830;SDS011;10076;52.008;4.708;2023-02-13T08:35:34;21.83;;;9.10;;
19830;SDS011;10076;52.008;4.708;2023-02-13T08:38:03;22.23;;;9.07;;
19830;SDS011;10076;52.008;4.708;2023-02-13T08:40:28;20.13;;;9.60;;
19830;SDS011;10076;52.008;4.708;2023-02-13T08:43:04;23.97;;;9.13;;
19830;SDS011;10076;52.008;4.708;2023-02-13T08:45:30;22.80;;;9.73;;
19830;SDS011;10076;52.008;4.708;2023-02-13T08:47:57;22.73;;;9.47;;
19830;SDS011;10076;52.008;4.708;2023-02-13T08:50:23;22.67;;;10.77;;
19830;SDS011;10076;52.008;4.708;2023-02-13T08:52:49;23.40;;;10.00;;
19830;SDS011;10076;52.008;4.708;2023-02-13T08:55:14;25.23;;;9.17;;
19830;SDS011;10076;52.008;4.708;2023-02-13T08:57:39;26.47;;;9.97;;
19830;SDS011;10076;52.008;4.708;2023-02-13T09:00:05;20.33;;;10.33;;
19830;SDS011;10076;52.008;4.708;2023-02-13T09:02:30;26.17;;;11.00;;
19830;SDS011;10076;52.008;4.708;2023-02-13T09:04:56;19.57;;;10.17;;
19830;SDS011;10076;52.008;4.708;2023-02-13T09:07:21;22.87;;;9.70;;
19830;SDS011;10076;52.008;4.708;2023-02-13T09:09:46;23.43;;;10.97;;
19830;SDS011;10076;52.008;4.708;2023-02-13T09:12:12;28.90;;;13.23;;
19830;SDS011;10076;52.008;4.708;2023-02-13T09:14:37;29.10;;;12.03;;
19830;SDS011;10076;52.008;4.708;2023-02-13T09:17:03;24.03;;;11.57;;
19830;SDS011;10076;52.008;4.708;2023-02-13T09:19:29;25.17;;;11.40;;
19830;SDS011;10076;52.008;4.708;2023-02-13T09:21:54;26.53;;;11.87;;
19830;SDS011;10076;52.008;4.708;2023-02-13T09:24:20;31.50;;;12.13;;
19830;SDS011;10076;52.008;4.708;2023-02-13T09:26:45;24.60;;;10.10;;
19830;SDS011;10076;52.008;4.708;2023-02-13T09:29:10;22.33;;;10.43;;
19830;SDS011;10076;52.008;4.708;2023-02-13T09:31:36;24.47;;;11.53;;
19830;SDS011;10076;52.008;4.708;2023-02-13T09:34:01;30.73;;;11.70;;
19830;SDS011;10076;52.008;4.708;2023-02-13T09:36:26;24.87;;;11.00;;
19830;SDS011;10076;52.008;4.708;2023-02-13T09:38:52;27.00;;;11.20;;
19830;SDS011;10076;52.008;4.708;2023-02-13T09:41:33;24.47;;;11.37;;
19830;SDS011;10076;52.008;4.708;2023-02-13T09:44:04;26.77;;;11.53;;
19830;SDS011;10076;52.008;4.708;2023-02-13T09:46:34;31.83;;;12.53;;
19830;SDS011;10076;52.008;4.708;2023-02-13T09:49:04;27.53;;;12.40;;
19830;SDS011;10076;52.008;4.708;2023-02-13T09:51:41;27.23;;;11.43;;
19830;SDS011;10076;52.008;4.708;2023-02-13T09:54:11;28.13;;;11.40;;
19830;SDS011;10076;52.008;4.708;2023-02-13T09:59:44;30.17;;;12.87;;
19830;SDS011;10076;52.008;4.708;2023-02-13T10:05:05;28.67;;;13.20;;
19830;SDS011;10076;52.008;4.708;2023-02-13T10:13:00;28.58;;;12.40;;
19830;SDS011;10076;52.008;4.708;2023-02-13T10:18:20;29.73;;;13.07;;
19830;SDS011;10076;52.008;4.708;2023-02-13T10:20:56;28.77;;;12.05;;
19830;SDS011;10076;52.008;4.708;2023-02-13T10:23:34;31.80;;;13.13;;
19830;SDS011;10076;52.008;4.708;2023-02-13T10:26:10;31.85;;;12.88;;
19830;SDS011;10076;52.008;4.708;2023-02-13T10:29:01;31.05;;;13.15;;
19830;SDS011;10076;52.008;4.708;2023-02-13T10:31:50;27.60;;;12.18;;
19830;SDS011;10076;52.008;4.708;2023-02-13T10:34:20;27.92;;;12.95;;
19830;SDS011;10076;52.008;4.708;2023-02-13T10:36:49;34.28;;;12.55;;
19830;SDS011;10076;52.008;4.708;2023-02-13T10:39:24;28.08;;;12.05;;
19830;SDS011;10076;52.008;4.708;2023-02-13T10:52:47;32.55;;;14.10;;
19830;SDS011;10076;52.008;4.708;2023-02-13T10:57:55;28.20;;;12.13;;
19830;SDS011;10076;52.008;4.708;2023-02-13T11:00:42;25.17;;;12.05;;
19830;SDS011;10076;52.008;4.708;2023-02-13T11:03:14;27.67;;;12.82;;
19830;SDS011;10076;52.008;4.708;2023-02-13T11:05:43;27.13;;;12.13;;
19830;SDS011;10076;52.008;4.708;2023-02-13T11:08:16;25.58;;;12.65;;
19830;SDS011;10076;52.008;4.708;2023-02-13T11:10:55;23.23;;;12.07;;
19830;SDS011;10076;52.008;4.708;2023-02-13T11:13:22;25.48;;;12.48;;
19830;SDS011;10076;52.008;4.708;2023-02-13T11:16:08;24.25;;;11.77;;
19830;SDS011;10076;52.008;4.708;2023-02-13T11:18:40;24.80;;;10.95;;
19830;SDS011;10076;52.008;4.708;2023-02-13T11:21:15;25.00;;;11.95;;
19830;SDS011;10076;52.008;4.708;2023-02-13T11:23:52;26.60;;;11.50;;
19830;SDS011;10076;52.008;4.708;2023-02-13T11:26:21;22.23;;;10.88;;
19830;SDS011;10076;52.008;4.708;2023-02-13T11:28:54;20.15;;;10.48;;
19830;SDS011;10076;52.008;4.708;2023-02-13T11:31:23;19.75;;;10.88;;
19830;SDS011;10076;52.008;4.708;2023-02-13T11:33:51;22.45;;;10.27;;
19830;SDS011;10076;52.008;4.708;2023-02-13T11:39:03;21.73;;;10.52;;
19830;SDS011;10076;52.008;4.708;2023-02-13T11:41:36;19.55;;;10.13;;
19830;SDS011;10076;52.008;4.708;2023-02-13T11:44:06;20.63;;;10.15;;
19830;SDS011;10076;52.008;4.708;2023-02-13T11:46:46;20.40;;;10.57;;
19830;SDS011;10076;52.008;4.708;2023-02-13T11:51:46;17.83;;;8.90;;
19830;SDS011;10076;52.008;4.708;2023-02-13T11:54:24;20.25;;;9.90;;
19830;SDS011;10076;52.008;4.708;2023-02-13T11:56:56;16.55;;;9.75;;
19830;SDS011;10076;52.008;4.708;2023-02-13T11:59:25;19.33;;;9.80;;
19830;SDS011;10076;52.008;4.708;2023-02-13T12:04:46;17.10;;;9.55;;
19830;SDS011;10076;52.008;4.708;2023-02-13T12:07:18;18.33;;;10.13;;
19830;SDS011;10076;52.008;4.708;2023-02-13T12:10:04;20.23;;;10.40;;
19830;SDS011;10076;52.008;4.708;2023-02-13T12:12:44;19.40;;;10.20;;
19830;SDS011;10076;52.008;4.708;2023-02-13T12:15:19;21.25;;;10.90;;
19830;SDS011;10076;52.008;4.708;2023-02-13T12:18:09;20.90;;;10.80;;
19830;SDS011;10076;52.008;4.708;2023-02-13T12:21:04;20.73;;;11.35;;
19830;SDS011;10076;52.008;4.708;2023-02-13T12:29:19;19.02;;;10.90;;
19830;SDS011;10076;52.008;4.708;2023-02-13T12:34:47;15.95;;;8.98;;
19830;SDS011;10076;52.008;4.708;2023-02-13T13:03:51;17.42;;;9.27;;
19830;SDS011;10076;52.008;4.708;2023-02-13T13:06:40;17.02;;;9.43;;
19830;SDS011;10076;52.008;4.708;2023-02-13T13:12:00;14.65;;;8.60;;
19830;SDS011;10076;52.008;4.708;2023-02-13T13:18:01;14.90;;;8.15;;
19830;SDS011;10076;52.008;4.708;2023-02-13T13:23:52;14.82;;;8.70;;
19830;SDS011;10076;52.008;4.708;2023-02-13T13:28:58;14.05;;;8.65;;
19830;SDS011;10076;52.008;4.708;2023-02-13T13:31:27;14.82;;;8.32;;
19830;SDS011;10076;52.008;4.708;2023-02-13T13:33:55;16.67;;;9.13;;
19830;SDS011;10076;52.008;4.708;2023-02-13T13:39:11;16.38;;;8.77;;
19830;SDS011;10076;52.008;4.708;2023-02-13T13:54:52;18.17;;;8.68;;
19830;SDS011;10076;52.008;4.708;2023-02-13T13:57:26;15.35;;;8.48;;
19830;SDS011;10076;52.008;4.708;2023-02-13T14:02:47;17.77;;;8.60;;
19830;SDS011;10076;52.008;4.708;2023-02-13T14:05:33;16.55;;;9.27;;
19830;SDS011;10076;52.008;4.708;2023-02-13T14:13:56;14.35;;;7.85;;
19830;SDS011;10076;52.008;4.708;2023-02-13T14:24:56;15.18;;;9.23;;
19830;SDS011;10076;52.008;4.708;2023-02-13T14:27:25;16.33;;;9.82;;
19830;SDS011;10076;52.008;4.708;2023-02-13T14:29:54;15.35;;;8.48;;
19830;SDS011;10076;52.008;4.708;2023-02-13T14:32:33;16.88;;;9.52;;
19830;SDS011;10076;52.008;4.708;2023-02-13T14:35:04;13.30;;;8.23;;
19830;SDS011;10076;52.008;4.708;2023-02-13T14:37:46;14.75;;;8.48;;
19830;SDS011;10076;52.008;4.708;2023-02-13T14:42:43;15.88;;;9.43;;
19830;SDS011;10076;52.008;4.708;2023-02-13T14:45:13;14.48;;;8.85;;
19830;SDS011;10076;52.008;4.708;2023-02-13T14:47:42;15.13;;;8.70;;
19830;SDS011;10076;52.008;4.708;2023-02-13T14:50:15;15.10;;;9.15;;
19830;SDS011;10076;52.008;4.708;2023-02-13T14:52:46;16.10;;;9.43;;
19830;SDS011;10076;52.008;4.708;2023-02-13T14:55:16;15.50;;;8.80;;
19830;SDS011;10076;52.008;4.708;2023-02-13T14:58:04;15.43;;;9.27;;
19830;SDS011;10076;52.008;4.708;2023-02-13T15:01:04;15.02;;;8.90;;
19830;SDS011;10076;52.008;4.708;2023-02-13T15:03:48;16.75;;;9.43;;
19830;SDS011;10076;52.008;4.708;2023-02-13T15:06:32;15.57;;;9.82;;
19830;SDS011;10076;52.008;4.708;2023-02-13T15:09:20;15.25;;;9.63;;
19830;SDS011;10076;52.008;4.708;2023-02-13T15:11:52;15.93;;;8.90;;
19830;SDS011;10076;52.008;4.708;2023-02-13T15:16:45;15.10;;;9.15;;
19830;SDS011;10076;52.008;4.708;2023-02-13T15:19:17;14.70;;;8.35;;
19830;SDS011;10076;52.008;4.708;2023-02-13T15:21:55;15.18;;;9.18;;
19830;SDS011;10076;52.008;4.708;2023-02-13T15:24:25;17.30;;;9.30;;
19830;SDS011;10076;52.008;4.708;2023-02-13T15:27:01;15.45;;;9.85;;
19830;SDS011;10076;52.008;4.708;2023-02-13T15:29:28;14.95;;;8.43;;
19830;SDS011;10076;52.008;4.708;2023-02-13T15:31:55;14.38;;;8.75;;
19830;SDS011;10076;52.008;4.708;2023-02-13T15:34:31;14.00;;;8.80;;
19830;SDS011;10076;52.008;4.708;2023-02-13T15:37:00;15.90;;;9.13;;
19830;SDS011;10076;52.008;4.708;2023-02-13T15:39:28;15.93;;;8.75;;
19830;SDS011;10076;52.008;4.708;2023-02-13T15:41:56;14.20;;;8.82;;
19830;SDS011;10076;52.008;4.708;2023-02-13T15:44:27;18.80;;;9.75;;
19830;SDS011;10076;52.008;4.708;2023-02-13T15:47:00;20.75;;;10.38;;
19830;SDS011;10076;52.008;4.708;2023-02-13T15:49:28;17.85;;;9.23;;
19830;SDS011;10076;52.008;4.708;2023-02-13T15:52:05;17.75;;;8.43;;
19830;SDS011;10076;52.008;4.708;2023-02-13T15:54:33;25.85;;;9.63;;
19830;SDS011;10076;52.008;4.708;2023-02-13T15:57:00;16.13;;;8.25;;
19830;SDS011;10076;52.008;4.708;2023-02-13T15:59:37;25.33;;;10.10;;
19830;SDS011;10076;52.008;4.708;2023-02-13T16:02:05;20.15;;;11.25;;
19830;SDS011;10076;52.008;4.708;2023-02-13T16:04:46;15.30;;;8.18;;
19830;SDS011;10076;52.008;4.708;2023-02-13T16:07:15;20.65;;;10.85;;
19830;SDS011;10076;52.008;4.708;2023-02-13T16:09:41;24.08;;;9.55;;
19830;SDS011;10076;52.008;4.708;2023-02-13T16:14:50;19.20;;;11.25;;
19830;SDS011;10076;52.008;4.708;2023-02-13T16:17:26;16.10;;;8.63;;
19830;SDS011;10076;52.008;4.708;2023-02-13T16:19:59;17.55;;;7.63;;
19830;SDS011;10076;52.008;4.708;2023-02-13T16:22:28;16.25;;;8.38;;
19830;SDS011;10076;52.008;4.708;2023-02-13T16:25:24;17.80;;;9.90;;
19830;SDS011;10076;52.008;4.708;2023-02-13T16:28:02;19.58;;;8.75;;
19830;SDS011;10076;52.008;4.708;2023-02-13T16:30:40;17.25;;;7.55;;
19830;SDS011;10076;52.008;4.708;2023-02-13T16:33:49;15.95;;;8.10;;
19830;SDS011;10076;52.008;4.708;2023-02-13T16:38:35;17.77;;;7.72;;
19830;SDS011;10076;52.008;4.708;2023-02-13T16:44:02;17.92;;;8.45;;
19830;SDS011;10076;52.008;4.708;2023-02-13T16:46:38;17.40;;;7.70;;
19830;SDS011;10076;52.008;4.708;2023-02-13T16:56:38;27.90;;;10.65;;
19830;SDS011;10076;52.008;4.708;2023-02-13T16:59:18;17.40;;;8.40;;
19830;SDS011;10076;52.008;4.708;2023-02-13T17:01:48;19.23;;;9.80;;
19830;SDS011;10076;52.008;4.708;2023-02-13T17:04:37;21.80;;;8.60;;
19830;SDS011;10076;52.008;4.708;2023-02-13T17:07:03;16.02;;;8.02;;
19830;SDS011;10076;52.008;4.708;2023-02-13T17:09:29;16.77;;;8.40;;
19830;SDS011;10076;52.008;4.708;2023-02-13T17:11:54;16.17;;;8.23;;
19830;SDS011;10076;52.008;4.708;2023-02-13T17:14:20;19.00;;;8.10;;
19830;SDS011;10076;52.008;4.708;2023-02-13T17:16:46;21.95;;;8.82;;
19830;SDS011;10076;52.008;4.708;2023-02-13T17:19:12;19.02;;;9.65;;
19830;SDS011;10076;52.008;4.708;2023-02-13T17:21:37;20.42;;;10.27;;
19830;SDS011;10076;52.008;4.708;2023-02-13T17:24:03;17.52;;;8.73;;
19830;SDS011;10076;52.008;4.708;2023-02-13T17:26:29;19.02;;;8.82;;
19830;SDS011;10076;52.008;4.708;2023-02-13T17:28:55;17.52;;;8.45;;
19830;SDS011;10076;52.008;4.708;2023-02-13T17:31:20;21.25;;;8.93;;
19830;SDS011;10076;52.008;4.708;2023-02-13T17:33:45;19.70;;;8.85;;
19830;SDS011;10076;52.008;4.708;2023-02-13T17:36:11;19.55;;;9.20;;
19830;SDS011;10076;52.008;4.708;2023-02-13T17:38:37;17.33;;;9.02;;
19830;SDS011;10076;52.008;4.708;2023-02-13T17:41:04;19.03;;;8.63;;
19830;SDS011;10076;52.008;4.708;2023-02-13T17:43:30;21.02;;;10.07;;
19830;SDS011;10076;52.008;4.708;2023-02-13T17:45:55;22.77;;;12.97;;
19830;SDS011;10076;52.008;4.708;2023-02-13T17:48:20;19.93;;;10.90;;
19830;SDS011;10076;52.008;4.708;2023-02-13T17:50:48;18.13;;;10.60;;
19830;SDS011;10076;52.008;4.708;2023-02-13T17:53:20;21.27;;;10.50;;